sensor_id;sensor_type;location;lat;lon;timestamp;pressure;altitude;pressure_sealevel;temperature;humidity
80644;BME280;70010;60.224;24.712;2023-05-24T00:00:16;101599.76;;;8.91;62.06
80644;BME280;70010;60.224;24.712;2023-05-24T00:02:41;101604.07;;;8.76;63.09
80644;BME280;70010;60.224;24.712;2023-05-24T00:05:07;101604.45;;;8.62;62.68
80644;BME280;70010;60.224;24.712;2023-05-24T00:07:32;101607.23;;;8.52;62.84
80644;BME280;70010;60.224;24.712;2023-05-24T00:09:58;101607.91;;;8.17;63.72
80644;BME280;70010;60.224;24.712;2023-05-24T00:12:24;101608.15;;;8.55;63.52
80644;BME280;70010;60.224;24.712;2023-05-24T00:14:48;101607.73;;;8.51;63.57
80644;BME280;70010;60.224;24.712;2023-05-24T00:17:14;101608.34;;;8.38;63.32
80644;BME280;70010;60.224;24.712;2023-05-24T00:19:39;101608.39;;;8.65;63.29
80644;BME280;70010;60.224;24.712;2023-05-24T00:22:05;101609.05;;;8.42;63.25
80644;BME280;70010;60.224;24.712;2023-05-24T00:24:30;101607.05;;;8.36;63.08
80644;BME280;70010;60.224;24.712;2023-05-24T00:26:56;101610.63;;;8.36;62.92
80644;BME280;70010;60.224;24.712;2023-05-24T00:29:21;101610.38;;;8.42;62.81
80644;BME280;70010;60.224;24.712;2023-05-24T00:31:46;101608.56;;;8.37;62.93
80644;BME280;70010;60.224;24.712;2023-05-24T00:34:12;101607.42;;;8.22;63.36
80644;BME280;70010;60.224;24.712;2023-05-24T00:36:37;101608.68;;;8.22;63.89
80644;BME280;70010;60.224;24.712;2023-05-24T00:39:02;101606.04;;;8.27;63.10
80644;BME280;70010;60.224;24.712;2023-05-24T00:41:28;101603.83;;;8.43;62.33
80644;BME280;70010;60.224;24.712;2023-05-24T00:43:53;101604.89;;;8.31;62.59
80644;BME280;70010;60.224;24.712;2023-05-24T00:46:20;101604.20;;;8.18;62.99
80644;BME280;70010;60.224;24.712;2023-05-24T00:48:45;101604.88;;;8.23;62.83
80644;BME280;70010;60.224;24.712;2023-05-24T00:51:10;101603.85;;;8.16;62.85
80644;BME280;70010;60.224;24.712;2023-05-24T00:53:36;101602.20;;;8.41;62.37
80644;BME280;70010;60.224;24.712;2023-05-24T00:56:01;101599.50;;;8.04;63.22
80644;BME280;70010;60.224;24.712;2023-05-24T00:58:26;101598.83;;;8.28;63.32
80644;BME280;70010;60.224;24.712;2023-05-24T01:00:53;101599.82;;;8.00;63.36
80644;BME280;70010;60.224;24.712;2023-05-24T01:03:17;101597.40;;;7.95;63.56
80644;BME280;70010;60.224;24.712;2023-05-24T01:05:43;101597.45;;;8.45;63.46
80644;BME280;70010;60.224;24.712;2023-05-24T01:08:14;101595.24;;;8.43;63.41
80644;BME280;70010;60.224;24.712;2023-05-24T01:10:39;101595.03;;;7.94;63.23
80644;BME280;70010;60.224;24.712;2023-05-24T01:13:04;101595.49;;;8.09;63.53
80644;BME280;70010;60.224;24.712;2023-05-24T01:15:32;101594.29;;;8.36;63.48
80644;BME280;70010;60.224;24.712;2023-05-24T01:17:59;101593.78;;;8.11;63.61
80644;BME280;70010;60.224;24.712;2023-05-24T01:20:16;101593.18;;;7.93;63.25
80644;BME280;70010;60.224;24.712;2023-05-24T01:22:55;101594.20;;;8.36;63.40
80644;BME280;70010;60.224;24.712;2023-05-24T01:25:13;101594.75;;;8.05;62.92
80644;BME280;70010;60.224;24.712;2023-05-24T01:27:33;101596.81;;;8.43;62.93
80644;BME280;70010;60.224;24.712;2023-05-24T01:29:59;101599.25;;;8.20;63.01
80644;BME280;70010;60.224;24.712;2023-05-24T01:32:23;101601.56;;;7.78;63.35
80644;BME280;70010;60.224;24.712;2023-05-24T01:34:49;101602.55;;;8.07;63.23
80644;BME280;70010;60.224;24.712;2023-05-24T01:37:14;101602.53;;;8.03;63.50
80644;BME280;70010;60.224;24.712;2023-05-24T01:39:39;101605.33;;;7.80;63.14
80644;BME280;70010;60.224;24.712;2023-05-24T01:42:10;101606.90;;;8.02;63.17
80644;BME280;70010;60.224;24.712;2023-05-24T01:44:35;101604.09;;;8.10;62.93
80644;BME280;70010;60.224;24.712;2023-05-24T01:47:01;101602.61;;;7.90;63.60
80644;BME280;70010;60.224;24.712;2023-05-24T01:49:24;101604.45;;;7.90;64.34
80644;BME280;70010;60.224;24.712;2023-05-24T01:51:49;101604.43;;;7.53;63.88
80644;BME280;70010;60.224;24.712;2023-05-24T01:54:12;101605.81;;;7.67;63.57
80644;BME280;70010;60.224;24.712;2023-05-24T01:56:37;101605.10;;;7.83;63.74
80644;BME280;70010;60.224;24.712;2023-05-24T01:59:02;101608.62;;;8.04;63.89
80644;BME280;70010;60.224;24.712;2023-05-24T02:01:27;101613.35;;;8.01;63.94
80644;BME280;70010;60.224;24.712;2023-05-24T02:03:52;101614.76;;;7.91;64.19
80644;BME280;70010;60.224;24.712;2023-05-24T02:06:17;101613.69;;;8.08;63.48
80644;BME280;70010;60.224;24.712;2023-05-24T02:08:43;101615.29;;;7.57;63.47
80644;BME280;70010;60.224;24.712;2023-05-24T02:11:08;101612.77;;;7.91;63.32
80644;BME280;70010;60.224;24.712;2023-05-24T02:13:34;101612.13;;;8.26;64.01
80644;BME280;70010;60.224;24.712;2023-05-24T02:15:59;101613.94;;;8.09;63.79
80644;BME280;70010;60.224;24.712;2023-05-24T02:18:25;101610.62;;;7.92;63.01
80644;BME280;70010;60.224;24.712;2023-05-24T02:20:50;101613.65;;;8.10;63.15
80644;BME280;70010;60.224;24.712;2023-05-24T02:23:15;101614.68;;;8.28;63.31
80644;BME280;70010;60.224;24.712;2023-05-24T02:25:41;101613.05;;;7.97;62.84
80644;BME280;70010;60.224;24.712;2023-05-24T02:28:06;101612.96;;;7.97;62.92
80644;BME280;70010;60.224;24.712;2023-05-24T02:30:32;101611.46;;;8.04;62.61
80644;BME280;70010;60.224;24.712;2023-05-24T02:32:58;101609.12;;;8.01;63.05
80644;BME280;70010;60.224;24.712;2023-05-24T02:35:23;101608.22;;;8.31;63.02
80644;BME280;70010;60.224;24.712;2023-05-24T02:37:49;101608.23;;;8.24;62.71
80644;BME280;70010;60.224;24.712;2023-05-24T02:40:14;101609.09;;;8.13;63.24
80644;BME280;70010;60.224;24.712;2023-05-24T02:42:40;101610.35;;;8.07;63.46
80644;BME280;70010;60.224;24.712;2023-05-24T02:45:06;101610.65;;;8.09;63.47
80644;BME280;70010;60.224;24.712;2023-05-24T02:47:30;101610.09;;;8.41;63.54
80644;BME280;70010;60.224;24.712;2023-05-24T02:49:56;101611.32;;;8.19;63.54
80644;BME280;70010;60.224;24.712;2023-05-24T02:52:21;101610.99;;;8.62;63.99
80644;BME280;70010;60.224;24.712;2023-05-24T02:54:47;101610.78;;;8.82;63.61
80644;BME280;70010;60.224;24.712;2023-05-24T02:57:13;101608.49;;;8.39;63.47
80644;BME280;70010;60.224;24.712;2023-05-24T02:59:38;101607.97;;;8.51;63.79
80644;BME280;70010;60.224;24.712;2023-05-24T03:02:04;101605.97;;;8.63;63.35
80644;BME280;70010;60.224;24.712;2023-05-24T03:04:29;101607.41;;;8.69;63.40
80644;BME280;70010;60.224;24.712;2023-05-24T03:06:54;101604.03;;;8.85;63.26
80644;BME280;70010;60.224;24.712;2023-05-24T03:09:19;101605.88;;;8.95;63.07
80644;BME280;70010;60.224;24.712;2023-05-24T03:11:45;101606.37;;;8.74;63.18
80644;BME280;70010;60.224;24.712;2023-05-24T03:14:10;101610.20;;;8.88;63.39
80644;BME280;70010;60.224;24.712;2023-05-24T03:16:36;101611.17;;;9.08;63.49
80644;BME280;70010;60.224;24.712;2023-05-24T03:19:01;101613.19;;;8.89;63.73
80644;BME280;70010;60.224;24.712;2023-05-24T03:21:27;101615.93;;;9.35;63.13
80644;BME280;70010;60.224;24.712;2023-05-24T03:23:52;101614.77;;;9.00;63.51
80644;BME280;70010;60.224;24.712;2023-05-24T03:26:18;101618.51;;;9.18;62.81
80644;BME280;70010;60.224;24.712;2023-05-24T03:28:43;101621.45;;;9.79;60.14
80644;BME280;70010;60.224;24.712;2023-05-24T03:31:09;101623.40;;;9.78;61.18
80644;BME280;70010;60.224;24.712;2023-05-24T03:33:34;101627.36;;;9.40;62.27
80644;BME280;70010;60.224;24.712;2023-05-24T03:35:59;101629.36;;;9.36;62.88
80644;BME280;70010;60.224;24.712;2023-05-24T03:38:25;101628.91;;;9.73;61.76
80644;BME280;70010;60.224;24.712;2023-05-24T03:40:50;101630.50;;;9.75;60.49
80644;BME280;70010;60.224;24.712;2023-05-24T03:43:16;101629.10;;;10.65;57.65
80644;BME280;70010;60.224;24.712;2023-05-24T03:45:41;101631.36;;;10.87;57.83
80644;BME280;70010;60.224;24.712;2023-05-24T03:48:06;101637.13;;;10.11;59.70
80644;BME280;70010;60.224;24.712;2023-05-24T03:50:32;101637.42;;;10.18;59.61
80644;BME280;70010;60.224;24.712;2023-05-24T03:52:57;101636.10;;;10.41;59.33
80644;BME280;70010;60.224;24.712;2023-05-24T03:55:22;101637.71;;;10.75;58.35
80644;BME280;70010;60.224;24.712;2023-05-24T03:57:48;101645.65;;;9.98;59.46
80644;BME280;70010;60.224;24.712;2023-05-24T04:00:13;101644.76;;;10.20;59.03
80644;BME280;70010;60.224;24.712;2023-05-24T04:02:38;101649.28;;;10.18;59.70
80644;BME280;70010;60.224;24.712;2023-05-24T04:05:05;101637.01;;;11.67;55.85
80644;BME280;70010;60.224;24.712;2023-05-24T04:07:29;101633.48;;;12.63;52.00
80644;BME280;70010;60.224;24.712;2023-05-24T04:09:54;101632.12;;;11.24;55.37
80644;BME280;70010;60.224;24.712;2023-05-24T04:12:20;101636.81;;;11.58;55.54
80644;BME280;70010;60.224;24.712;2023-05-24T04:14:46;101635.30;;;10.81;57.12
80644;BME280;70010;60.224;24.712;2023-05-24T04:17:11;101637.21;;;10.77;57.87
80644;BME280;70010;60.224;24.712;2023-05-24T04:19:36;101640.81;;;11.60;56.06
80644;BME280;70010;60.224;24.712;2023-05-24T04:22:02;101641.07;;;11.29;56.46
80644;BME280;70010;60.224;24.712;2023-05-24T04:24:27;101642.65;;;11.51;55.58
80644;BME280;70010;60.224;24.712;2023-05-24T04:26:53;101643.76;;;12.02;54.36
80644;BME280;70010;60.224;24.712;2023-05-24T04:29:18;101642.57;;;11.54;54.89
80644;BME280;70010;60.224;24.712;2023-05-24T04:31:44;101639.31;;;11.38;55.71
80644;BME280;70010;60.224;24.712;2023-05-24T04:34:10;101639.19;;;12.81;52.47
80644;BME280;70010;60.224;24.712;2023-05-24T04:36:35;101639.68;;;12.04;54.29
80644;BME280;70010;60.224;24.712;2023-05-24T04:39:01;101638.82;;;12.88;51.62
80644;BME280;70010;60.224;24.712;2023-05-24T04:41:26;101643.10;;;12.15;54.23
80644;BME280;70010;60.224;24.712;2023-05-24T04:43:51;101641.16;;;11.57;55.79
80644;BME280;70010;60.224;24.712;2023-05-24T04:46:17;101642.84;;;11.76;56.21
80644;BME280;70010;60.224;24.712;2023-05-24T04:48:43;101644.07;;;13.28;52.49
80644;BME280;70010;60.224;24.712;2023-05-24T04:51:08;101646.56;;;13.39;49.92
80644;BME280;70010;60.224;24.712;2023-05-24T04:53:34;101650.94;;;12.95;51.60
80644;BME280;70010;60.224;24.712;2023-05-24T04:55:59;101653.72;;;14.40;48.15
80644;BME280;70010;60.224;24.712;2023-05-24T04:58:25;101652.57;;;12.73;52.11
80644;BME280;70010;60.224;24.712;2023-05-24T05:00:51;101654.31;;;14.05;49.90
80644;BME280;70010;60.224;24.712;2023-05-24T05:03:16;101654.25;;;13.54;50.06
80644;BME280;70010;60.224;24.712;2023-05-24T05:05:41;101657.06;;;14.56;47.65
80644;BME280;70010;60.224;24.712;2023-05-24T05:08:07;101652.91;;;13.03;51.02
80644;BME280;70010;60.224;24.712;2023-05-24T05:10:33;101655.51;;;12.49;52.06
80644;BME280;70010;60.224;24.712;2023-05-24T05:12:58;101651.56;;;13.53;50.79
80644;BME280;70010;60.224;24.712;2023-05-24T05:15:24;101655.48;;;12.98;52.08
80644;BME280;70010;60.224;24.712;2023-05-24T05:17:49;101650.21;;;12.42;52.67
80644;BME280;70010;60.224;24.712;2023-05-24T05:20:15;101648.66;;;12.97;52.24
80644;BME280;70010;60.224;24.712;2023-05-24T05:22:45;101650.77;;;13.51;50.90
80644;BME280;70010;60.224;24.712;2023-05-24T05:25:06;101653.54;;;13.76;49.71
80644;BME280;70010;60.224;24.712;2023-05-24T05:27:32;101657.74;;;14.34;48.45
80644;BME280;70010;60.224;24.712;2023-05-24T05:29:57;101654.55;;;14.05;49.32
80644;BME280;70010;60.224;24.712;2023-05-24T05:32:22;101656.49;;;14.52;48.20
80644;BME280;70010;60.224;24.712;2023-05-24T05:34:48;101656.20;;;13.75;49.19
80644;BME280;70010;60.224;24.712;2023-05-24T05:37:13;101652.79;;;15.87;45.23
80644;BME280;70010;60.224;24.712;2023-05-24T05:39:39;101653.39;;;14.99;45.95
80644;BME280;70010;60.224;24.712;2023-05-24T05:42:05;101654.76;;;14.06;48.28
80644;BME280;70010;60.224;24.712;2023-05-24T05:44:30;101656.49;;;13.64;49.87
80644;BME280;70010;60.224;24.712;2023-05-24T05:46:55;101659.89;;;14.32;49.08
80644;BME280;70010;60.224;24.712;2023-05-24T05:49:20;101663.28;;;14.08;48.98
80644;BME280;70010;60.224;24.712;2023-05-24T05:51:46;101662.79;;;13.72;50.17
80644;BME280;70010;60.224;24.712;2023-05-24T05:54:12;101664.95;;;14.21;49.35
80644;BME280;70010;60.224;24.712;2023-05-24T05:56:37;101660.16;;;14.97;46.94
80644;BME280;70010;60.224;24.712;2023-05-24T05:59:03;101669.19;;;14.66;47.95
80644;BME280;70010;60.224;24.712;2023-05-24T06:01:28;101669.02;;;14.16;48.57
80644;BME280;70010;60.224;24.712;2023-05-24T06:03:54;101667.09;;;14.35;48.49
80644;BME280;70010;60.224;24.712;2023-05-24T06:06:19;101662.89;;;14.27;48.35
80644;BME280;70010;60.224;24.712;2023-05-24T06:08:45;101663.01;;;14.76;47.44
80644;BME280;70010;60.224;24.712;2023-05-24T06:11:10;101653.71;;;16.49;44.21
80644;BME280;70010;60.224;24.712;2023-05-24T06:13:36;101655.46;;;16.84;42.26
80644;BME280;70010;60.224;24.712;2023-05-24T06:16:01;101653.26;;;17.56;40.32
80644;BME280;70010;60.224;24.712;2023-05-24T06:18:26;101657.27;;;15.86;44.22
80644;BME280;70010;60.224;24.712;2023-05-24T06:20:52;101657.17;;;17.98;40.52
80644;BME280;70010;60.224;24.712;2023-05-24T06:23:17;101658.84;;;17.42;40.32
80644;BME280;70010;60.224;24.712;2023-05-24T06:25:42;101664.64;;;15.26;45.09
80644;BME280;70010;60.224;24.712;2023-05-24T06:28:08;101665.00;;;15.20;46.31
80644;BME280;70010;60.224;24.712;2023-05-24T06:30:33;101663.09;;;17.66;40.68
80644;BME280;70010;60.224;24.712;2023-05-24T06:32:59;101663.95;;;17.20;40.47
80644;BME280;70010;60.224;24.712;2023-05-24T06:35:25;101664.96;;;16.06;43.63
80644;BME280;70010;60.224;24.712;2023-05-24T06:37:50;101665.31;;;15.07;45.66
80644;BME280;70010;60.224;24.712;2023-05-24T06:40:16;101664.08;;;17.74;40.49
80644;BME280;70010;60.224;24.712;2023-05-24T06:42:41;101665.90;;;15.98;43.25
80644;BME280;70010;60.224;24.712;2023-05-24T06:45:07;101667.72;;;18.63;38.71
80644;BME280;70010;60.224;24.712;2023-05-24T06:47:31;101666.28;;;17.58;39.33
80644;BME280;70010;60.224;24.712;2023-05-24T06:49:57;101669.47;;;18.58;38.48
80644;BME280;70010;60.224;24.712;2023-05-24T06:52:22;101668.44;;;18.45;38.43
80644;BME280;70010;60.224;24.712;2023-05-24T06:54:48;101668.95;;;19.05;37.44
80644;BME280;70010;60.224;24.712;2023-05-24T06:57:14;101668.36;;;17.14;40.56
80644;BME280;70010;60.224;24.712;2023-05-24T06:59:39;101668.85;;;17.23;40.68
80644;BME280;70010;60.224;24.712;2023-05-24T07:02:04;101670.25;;;17.01;41.84
80644;BME280;70010;60.224;24.712;2023-05-24T07:04:30;101663.36;;;19.57;36.71
80644;BME280;70010;60.224;24.712;2023-05-24T07:06:56;101669.85;;;17.52;40.45
80644;BME280;70010;60.224;24.712;2023-05-24T07:09:21;101672.66;;;17.12;41.02
80644;BME280;70010;60.224;24.712;2023-05-24T07:11:47;101672.10;;;17.17;42.21
80644;BME280;70010;60.224;24.712;2023-05-24T07:14:12;101670.71;;;17.72;40.58
80644;BME280;70010;60.224;24.712;2023-05-24T07:16:38;101674.62;;;18.96;38.14
80644;BME280;70010;60.224;24.712;2023-05-24T07:19:04;101676.60;;;17.87;39.48
80644;BME280;70010;60.224;24.712;2023-05-24T07:21:29;101681.27;;;17.58;39.45
80644;BME280;70010;60.224;24.712;2023-05-24T07:23:54;101681.02;;;16.86;41.49
80644;BME280;70010;60.224;24.712;2023-05-24T07:26:20;101680.56;;;18.19;38.99
80644;BME280;70010;60.224;24.712;2023-05-24T07:28:46;101680.43;;;18.24;38.29
80644;BME280;70010;60.224;24.712;2023-05-24T07:31:11;101681.67;;;18.48;38.09
80644;BME280;70010;60.224;24.712;2023-05-24T07:33:37;101679.06;;;17.87;39.16
80644;BME280;70010;60.224;24.712;2023-05-24T07:36:03;101681.66;;;17.36;40.18
80644;BME280;70010;60.224;24.712;2023-05-24T07:38:28;101682.78;;;19.61;36.07
80644;BME280;70010;60.224;24.712;2023-05-24T07:40:54;101680.61;;;20.10;34.27
80644;BME280;70010;60.224;24.712;2023-05-24T07:43:19;101676.73;;;20.75;32.26
80644;BME280;70010;60.224;24.712;2023-05-24T07:45:45;101676.53;;;21.34;31.33
80644;BME280;70010;60.224;24.712;2023-05-24T07:48:11;101680.22;;;19.23;34.40
80644;BME280;70010;60.224;24.712;2023-05-24T07:50:37;101672.67;;;21.26;30.73
80644;BME280;70010;60.224;24.712;2023-05-24T07:53:02;101668.06;;;22.37;28.59
80644;BME280;70010;60.224;24.712;2023-05-24T07:55:28;101669.24;;;22.56;27.84
80644;BME280;70010;60.224;24.712;2023-05-24T07:57:53;101670.40;;;22.71;27.50
80644;BME280;70010;60.224;24.712;2023-05-24T08:00:19;101668.98;;;22.19;29.15
80644;BME280;70010;60.224;24.712;2023-05-24T08:02:44;101673.95;;;22.65;27.33
80644;BME280;70010;60.224;24.712;2023-05-24T08:05:11;101671.39;;;21.79;26.75
80644;BME280;70010;60.224;24.712;2023-05-24T08:07:35;101670.39;;;21.38;28.07
80644;BME280;70010;60.224;24.712;2023-05-24T08:10:01;101670.05;;;20.39;27.90
80644;BME280;70010;60.224;24.712;2023-05-24T08:12:26;101667.37;;;19.78;30.28
80644;BME280;70010;60.224;24.712;2023-05-24T08:14:51;101666.57;;;20.65;30.73
80644;BME280;70010;60.224;24.712;2023-05-24T08:17:16;101674.01;;;19.47;33.08
80644;BME280;70010;60.224;24.712;2023-05-24T08:19:42;101672.78;;;19.38;33.73
80644;BME280;70010;60.224;24.712;2023-05-24T08:22:07;101671.00;;;20.23;32.51
80644;BME280;70010;60.224;24.712;2023-05-24T08:24:32;101667.79;;;19.12;33.92
80644;BME280;70010;60.224;24.712;2023-05-24T08:26:58;101657.33;;;20.58;31.36
80644;BME280;70010;60.224;24.712;2023-05-24T08:29:23;101653.66;;;20.43;31.37
80644;BME280;70010;60.224;24.712;2023-05-24T08:31:48;101664.38;;;19.79;32.13
80644;BME280;70010;60.224;24.712;2023-05-24T08:34:14;101660.08;;;22.00;29.01
80644;BME280;70010;60.224;24.712;2023-05-24T08:36:40;101659.63;;;20.07;30.66
80644;BME280;70010;60.224;24.712;2023-05-24T08:39:05;101651.87;;;20.57;30.67
80644;BME280;70010;60.224;24.712;2023-05-24T08:41:31;101656.61;;;19.96;31.11
80644;BME280;70010;60.224;24.712;2023-05-24T08:43:59;101656.68;;;23.10;27.12
80644;BME280;70010;60.224;24.712;2023-05-24T08:46:22;101652.45;;;21.01;29.85
80644;BME280;70010;60.224;24.712;2023-05-24T08:48:47;101647.16;;;23.21;26.72
80644;BME280;70010;60.224;24.712;2023-05-24T08:51:14;101651.13;;;23.23;26.65
80644;BME280;70010;60.224;24.712;2023-05-24T08:53:38;101649.65;;;21.34;28.96
80644;BME280;70010;60.224;24.712;2023-05-24T08:56:04;101648.35;;;22.69;27.30
80644;BME280;70010;60.224;24.712;2023-05-24T08:58:29;101642.33;;;22.82;27.09
80644;BME280;70010;60.224;24.712;2023-05-24T09:00:54;101643.17;;;22.78;26.72
80644;BME280;70010;60.224;24.712;2023-05-24T09:03:20;101639.18;;;22.73;27.34
80644;BME280;70010;60.224;24.712;2023-05-24T09:05:45;101633.38;;;22.43;27.19
80644;BME280;70010;60.224;24.712;2023-05-24T09:08:10;101628.50;;;24.48;25.22
80644;BME280;70010;60.224;24.712;2023-05-24T09:10:36;101630.26;;;25.09;23.79
80644;BME280;70010;60.224;24.712;2023-05-24T09:13:02;101632.42;;;21.43;28.18
80644;BME280;70010;60.224;24.712;2023-05-24T09:15:27;101627.73;;;22.12;27.75
80644;BME280;70010;60.224;24.712;2023-05-24T09:17:52;101632.72;;;23.00;25.39
80644;BME280;70010;60.224;24.712;2023-05-24T09:20:17;101629.37;;;21.10;28.04
80644;BME280;70010;60.224;24.712;2023-05-24T09:22:43;101622.23;;;23.26;25.63
80644;BME280;70010;60.224;24.712;2023-05-24T09:25:11;101624.45;;;23.39;26.30
80644;BME280;70010;60.224;24.712;2023-05-24T09:27:35;101623.33;;;24.16;25.17
80644;BME280;70010;60.224;24.712;2023-05-24T09:30:00;101626.03;;;22.87;25.81
80644;BME280;70010;60.224;24.712;2023-05-24T09:32:25;101621.57;;;22.12;26.83
80644;BME280;70010;60.224;24.712;2023-05-24T09:34:51;101616.91;;;23.14;26.22
80644;BME280;70010;60.224;24.712;2023-05-24T09:37:17;101612.62;;;23.51;25.06
80644;BME280;70010;60.224;24.712;2023-05-24T09:39:41;101615.05;;;24.17;24.34
80644;BME280;70010;60.224;24.712;2023-05-24T09:42:06;101614.89;;;22.93;25.13
80644;BME280;70010;60.224;24.712;2023-05-24T09:44:31;101611.70;;;23.63;25.11
80644;BME280;70010;60.224;24.712;2023-05-24T09:47:01;101612.56;;;22.08;26.24
80644;BME280;70010;60.224;24.712;2023-05-24T09:49:21;101614.27;;;23.28;25.05
80644;BME280;70010;60.224;24.712;2023-05-24T09:51:47;101617.14;;;23.85;24.59
80644;BME280;70010;60.224;24.712;2023-05-24T09:54:12;101614.67;;;23.05;24.83
80644;BME280;70010;60.224;24.712;2023-05-24T09:56:39;101614.15;;;23.48;24.52
80644;BME280;70010;60.224;24.712;2023-05-24T09:59:06;101610.25;;;24.04;23.88
80644;BME280;70010;60.224;24.712;2023-05-24T10:01:28;101610.68;;;22.64;25.71
80644;BME280;70010;60.224;24.712;2023-05-24T10:03:54;101613.88;;;22.65;25.68
80644;BME280;70010;60.224;24.712;2023-05-24T10:06:19;101613.86;;;23.30;25.00
80644;BME280;70010;60.224;24.712;2023-05-24T10:08:44;101612.90;;;24.77;23.30
80644;BME280;70010;60.224;24.712;2023-05-24T10:11:09;101607.37;;;24.55;22.98
80644;BME280;70010;60.224;24.712;2023-05-24T10:13:35;101615.73;;;23.96;23.96
80644;BME280;70010;60.224;24.712;2023-05-24T10:16:00;101613.13;;;23.34;24.67
80644;BME280;70010;60.224;24.712;2023-05-24T10:18:25;101605.19;;;26.86;20.78
80644;BME280;70010;60.224;24.712;2023-05-24T20:41:08;69816.49;;;13.66;91.62
80644;BME280;70010;60.224;24.712;2023-05-24T20:43:33;101338.37;;;15.93;36.53
80644;BME280;70010;60.224;24.712;2023-05-24T20:45:59;101336.28;;;15.05;39.00
80644;BME280;70010;60.224;24.712;2023-05-24T20:48:24;101332.80;;;15.26;39.35
80644;BME280;70010;60.224;24.712;2023-05-24T20:50:50;101330.73;;;15.51;39.34
80644;BME280;70010;60.224;24.712;2023-05-24T20:53:16;101329.36;;;14.98;40.08
80644;BME280;70010;60.224;24.712;2023-05-24T20:55:40;101328.19;;;14.73;40.52
80644;BME280;70010;60.224;24.712;2023-05-24T20:58:06;101326.56;;;14.47;41.31
80644;BME280;70010;60.224;24.712;2023-05-24T21:00:31;101321.52;;;14.11;41.53
80644;BME280;70010;60.224;24.712;2023-05-24T21:02:56;101319.22;;;14.30;41.61
80644;BME280;70010;60.224;24.712;2023-05-24T21:05:21;101319.59;;;14.49;42.29
80644;BME280;70010;60.224;24.712;2023-05-24T21:07:46;101317.29;;;16.02;38.37
80644;BME280;70010;60.224;24.712;2023-05-24T21:10:15;101317.44;;;15.93;38.43
80644;BME280;70010;60.224;24.712;2023-05-24T21:12:37;101317.42;;;16.67;37.68
80644;BME280;70010;60.224;24.712;2023-05-24T21:15:03;101315.35;;;15.93;38.51
80644;BME280;70010;60.224;24.712;2023-05-24T21:17:28;101318.24;;;16.68;36.62
80644;BME280;70010;60.224;24.712;2023-05-24T21:19:53;101314.05;;;17.60;35.35
80644;BME280;70010;60.224;24.712;2023-05-24T21:22:18;101314.87;;;15.49;38.41
80644;BME280;70010;60.224;24.712;2023-05-24T21:24:44;101314.97;;;14.77;40.18
80644;BME280;70010;60.224;24.712;2023-05-24T21:27:10;101308.57;;;15.81;38.65
80644;BME280;70010;60.224;24.712;2023-05-24T21:29:35;101313.45;;;14.86;40.14
80644;BME280;70010;60.224;24.712;2023-05-24T21:32:00;101314.40;;;16.09;38.15
80644;BME280;70010;60.224;24.712;2023-05-24T21:34:25;101312.71;;;16.86;36.41
80644;BME280;70010;60.224;24.712;2023-05-24T21:36:51;101305.57;;;14.99;39.49
80644;BME280;70010;60.224;24.712;2023-05-24T21:39:17;101303.91;;;14.83;40.68
80644;BME280;70010;60.224;24.712;2023-05-24T21:41:42;101304.64;;;14.04;41.96
80644;BME280;70010;60.224;24.712;2023-05-24T21:44:07;101303.18;;;14.29;42.47
80644;BME280;70010;60.224;24.712;2023-05-24T21:46:33;101305.86;;;14.23;42.30
80644;BME280;70010;60.224;24.712;2023-05-24T21:48:58;101306.83;;;14.67;42.07
80644;BME280;70010;60.224;24.712;2023-05-24T21:51:24;101303.19;;;14.08;43.11
80644;BME280;70010;60.224;24.712;2023-05-24T21:53:49;101301.33;;;14.41;43.15
80644;BME280;70010;60.224;24.712;2023-05-24T21:56:14;101303.44;;;13.72;44.50
80644;BME280;70010;60.224;24.712;2023-05-24T21:58:40;101305.48;;;13.67;44.77
80644;BME280;70010;60.224;24.712;2023-05-24T22:01:05;101310.65;;;13.96;43.63
80644;BME280;70010;60.224;24.712;2023-05-24T22:03:30;101303.96;;;14.39;42.62
80644;BME280;70010;60.224;24.712;2023-05-24T22:05:56;101305.05;;;13.22;46.03
80644;BME280;70010;60.224;24.712;2023-05-24T22:08:21;101309.31;;;12.96;47.09
80644;BME280;70010;60.224;24.712;2023-05-24T22:10:46;101309.82;;;12.74;47.70
80644;BME280;70010;60.224;24.712;2023-05-24T22:13:11;101302.57;;;13.21;46.63
80644;BME280;70010;60.224;24.712;2023-05-24T22:15:36;101299.90;;;13.47;45.34
80644;BME280;70010;60.224;24.712;2023-05-24T22:18:02;101302.76;;;12.98;46.66
80644;BME280;70010;60.224;24.712;2023-05-24T22:20:27;101303.80;;;13.29;46.17
80644;BME280;70010;60.224;24.712;2023-05-24T22:22:52;101299.19;;;13.37;45.61
80644;BME280;70010;60.224;24.712;2023-05-24T22:25:18;101297.97;;;14.29;43.51
80644;BME280;70010;60.224;24.712;2023-05-24T22:27:43;101293.80;;;13.27;46.05
80644;BME280;70010;60.224;24.712;2023-05-24T22:30:09;101295.22;;;12.85;46.95
80644;BME280;70010;60.224;24.712;2023-05-24T22:32:34;101302.07;;;12.76;48.01
80644;BME280;70010;60.224;24.712;2023-05-24T22:34:59;101298.67;;;12.47;48.97
80644;BME280;70010;60.224;24.712;2023-05-24T22:37:25;101299.32;;;12.44;47.84
80644;BME280;70010;60.224;24.712;2023-05-24T22:39:50;101297.12;;;13.16;46.77
80644;BME280;70010;60.224;24.712;2023-05-24T22:42:15;101291.69;;;14.96;42.15
80644;BME280;70010;60.224;24.712;2023-05-24T22:44:41;101291.31;;;13.89;43.63
80644;BME280;70010;60.224;24.712;2023-05-24T22:47:06;101291.82;;;15.14;41.77
80644;BME280;70010;60.224;24.712;2023-05-24T22:49:31;101292.31;;;13.84;43.89
80644;BME280;70010;60.224;24.712;2023-05-24T22:51:56;101290.02;;;14.32;43.22